METAR AND TAF INFORMATION
METAR FOR SBGR
ADDS - METARS form results

(0625 UTC 27 April 2018)
Data provider http://aviationweather.gov/adds/metars/
 
METAR text: SBGR 270600Z 13004KT 8000 SCT007 BKN011 19/18 Q1021
Conditions at: SBGR (GUARULHOS (CIV/M, BR) observed 0600 UTC 27 April 2018
Temperature: 19.0°C (66°F)
Dewpoint: 18.0°C (64°F) [RH = 94%]
Pressure (altimeter): 30.15 inches Hg (1021.0 mb)
Winds: from the SE (130 degrees) at 5 MPH (4 knots; 2.1 m/s)
Visibility: 5 miles (8 km)
Ceiling: 1100 feet AGL
Clouds: scattered clouds at 700 feet AGL
broken clouds at 1100 feet AGL
Weather: no significant weather observed at this time

Forecast for: SBGR (GUARULHOS (CIV/M, BR)
Text: TAF AMD SBGR 270200Z 2703/2806 08002KT CAVOK TN17/2708Z TX28/2717Z
Forecast period: 0300 UTC 27 April 2018 to 0600 UTC 28 April 2018
Forecast type: FROM: standard forecast or significant change
Winds: from the E (80 degrees) at 2 MPH (2 knots; 1.0 m/s)
Visibility: 6 or more miles (10+ km)
Clouds: not forecast
Weather: no significant weather forecast for this period
Forecast for: SBGR (GUARULHOS (CIV/M, BR)
Text: TAF AMD SBGR 270200Z 2703/2806 08002KT CAVOK TN17/2708Z TX28/2717Z
Forecast period: 0300 UTC 27 April 2018 to 0600 UTC 28 April 2018
Forecast type: FROM: standard forecast or significant change
Winds: from the E (80 degrees) at 2 MPH (2 knots; 1.0 m/s)
Visibility: 6 or more miles (10+ km)
Clouds: not forecast
Weather: no significant weather forecast for this period
Forecast for: SBGR (GUARULHOS (CIV/M, BR)
Text: TAF AMD SBGR 270200Z 2703/2806 08002KT CAVOK TN17/2708Z TX28/2717Z
Forecast period: 0300 to 0500 UTC 27 April 2018
Forecast type: BECOMING: Conditions expected to become as follows by 0500 UTC 27 April 2018
Winds: from the ENE (60 degrees) at 3 MPH (3 knots; 1.6 m/s)
Visibility: 4 miles (6 km)
Weather: no significant weather forecast for this period
Forecast for: SBGR (GUARULHOS (CIV/M, BR)
Text: TAF AMD SBGR 270200Z 2703/2806 08002KT CAVOK TN17/2708Z TX28/2717Z
Forecast period: 0300 to 0500 UTC 27 April 2018
Forecast type: BECOMING: Conditions expected to become as follows by 0500 UTC 27 April 2018
Winds: from the ENE (60 degrees) at 3 MPH (3 knots; 1.6 m/s)
Visibility: 4 miles (6 km)
Weather: no significant weather forecast for this period
Forecast for: SBGR (GUARULHOS (CIV/M, BR)
Text: TAF AMD SBGR 270200Z 2703/2806 08002KT CAVOK TN17/2708Z TX28/2717Z
Forecast period: 0500 to 1300 UTC 27 April 2018
Forecast type: BECOMING: Conditions expected to become as follows by 0700 UTC 27 April 2018
Winds: from the ENE (60 degrees) at 3 MPH (3 knots; 1.6 m/s)
Visibility: 2.49 miles (4.01 km)
Weather: BR  (mist)
Forecast for: SBGR (GUARULHOS (CIV/M, BR)
Text: TAF AMD SBGR 270200Z 2703/2806 08002KT CAVOK TN17/2708Z TX28/2717Z
Forecast period: 0500 to 1300 UTC 27 April 2018
Forecast type: BECOMING: Conditions expected to become as follows by 0700 UTC 27 April 2018
Winds: from the ENE (60 degrees) at 3 MPH (3 knots; 1.6 m/s)
Visibility: 2.49 miles (4.01 km)
Weather: BR  (mist)
Forecast for: SBGR (GUARULHOS (CIV/M, BR)
Text: TAF AMD SBGR 270200Z 2703/2806 08002KT CAVOK TN17/2708Z TX28/2717Z
Forecast period: 0700 to 1100 UTC 27 April 2018
Forecast type: PROBABLE: 40 percent likelihood of the following during this time
Visibility: 0.43 miles (0.69 km)
Ceiling: 400 feet AGL
Clouds: broken clouds at 400 feet AGL
Weather: FG  (fog)
Forecast for: SBGR (GUARULHOS (CIV/M, BR)
Text: TAF AMD SBGR 270200Z 2703/2806 08002KT CAVOK TN17/2708Z TX28/2717Z
Forecast period: 0700 to 1100 UTC 27 April 2018
Forecast type: PROBABLE: 40 percent likelihood of the following during this time
Visibility: 0.43 miles (0.69 km)
Ceiling: 400 feet AGL
Clouds: broken clouds at 400 feet AGL
Weather: FG  (fog)
Forecast for: SBGR (GUARULHOS (CIV/M, BR)
Text: TAF AMD SBGR 270200Z 2703/2806 08002KT CAVOK TN17/2708Z TX28/2717Z
Forecast period: 1300 to 1900 UTC 27 April 2018
Forecast type: BECOMING: Conditions expected to become as follows by 1500 UTC 27 April 2018
Winds: from the ESE (120 degrees) at 6 MPH (5 knots; 2.6 m/s)
Visibility: 6 or more miles (10+ km)
Clouds: scattered clouds at 4000 feet AGL
Weather: NSW  (no significant weather)
Forecast for: SBGR (GUARULHOS (CIV/M, BR)
Text: TAF AMD SBGR 270200Z 2703/2806 08002KT CAVOK TN17/2708Z TX28/2717Z
Forecast period: 1300 to 1900 UTC 27 April 2018
Forecast type: BECOMING: Conditions expected to become as follows by 1500 UTC 27 April 2018
Winds: from the ESE (120 degrees) at 6 MPH (5 knots; 2.6 m/s)
Visibility: 6 or more miles (10+ km)
Clouds: scattered clouds at 4000 feet AGL
Weather: NSW  (no significant weather)
Forecast for: SBGR (GUARULHOS (CIV/M, BR)
Text: TAF AMD SBGR 270200Z 2703/2806 08002KT CAVOK TN17/2708Z TX28/2717Z
Forecast period: 1900 UTC 27 April 2018 to 0000 UTC 28 April 2018
Forecast type: BECOMING: Conditions expected to become as follows by 2100 UTC 27 April 2018
Winds: from the SSE (150 degrees) at 12 MPH (10 knots; 5.2 m/s)
Visibility: 6 or more miles (10+ km)
Clouds: scattered clouds at 4000 feet AGL
Weather: NSW  (no significant weather)
Forecast for: SBGR (GUARULHOS (CIV/M, BR)
Text: TAF AMD SBGR 270200Z 2703/2806 08002KT CAVOK TN17/2708Z TX28/2717Z
Forecast period: 1900 UTC 27 April 2018 to 0000 UTC 28 April 2018
Forecast type: BECOMING: Conditions expected to become as follows by 2100 UTC 27 April 2018
Winds: from the SSE (150 degrees) at 12 MPH (10 knots; 5.2 m/s)
Visibility: 6 or more miles (10+ km)
Clouds: scattered clouds at 4000 feet AGL
Weather: NSW  (no significant weather)
Forecast for: SBGR (GUARULHOS (CIV/M, BR)
Text: TAF AMD SBGR 270200Z 2703/2806 08002KT CAVOK TN17/2708Z TX28/2717Z
Forecast period: 2100 UTC 27 April 2018 to 0000 UTC 28 April 2018
Forecast type: PROBABLE: 30 percent likelihood of the following during this time
Ceiling: 1500 feet AGL
Clouds: broken clouds at 1500 feet AGL
Weather: no significant weather forecast for this period
Forecast for: SBGR (GUARULHOS (CIV/M, BR)
Text: TAF AMD SBGR 270200Z 2703/2806 08002KT CAVOK TN17/2708Z TX28/2717Z
Forecast period: 2100 UTC 27 April 2018 to 0000 UTC 28 April 2018
Forecast type: PROBABLE: 30 percent likelihood of the following during this time
Ceiling: 1500 feet AGL
Clouds: broken clouds at 1500 feet AGL
Weather: no significant weather forecast for this period
Forecast for: SBGR (GUARULHOS (CIV/M, BR)
Text: TAF AMD SBGR 270200Z 2703/2806 08002KT CAVOK TN17/2708Z TX28/2717Z
Forecast period: 0000 to 0300 UTC 28 April 2018
Forecast type: BECOMING: Conditions expected to become as follows by 0200 UTC 28 April 2018
Winds: from the ENE (70 degrees) at 6 MPH (5 knots; 2.6 m/s)
Visibility: 6 or more miles (10+ km)
Ceiling: 1100 feet AGL
Clouds: broken clouds at 1100 feet AGL
Weather: NSW  (no significant weather)
Forecast for: SBGR (GUARULHOS (CIV/M, BR)
Text: TAF AMD SBGR 270200Z 2703/2806 08002KT CAVOK TN17/2708Z TX28/2717Z
Forecast period: 0000 to 0300 UTC 28 April 2018
Forecast type: BECOMING: Conditions expected to become as follows by 0200 UTC 28 April 2018
Winds: from the ENE (70 degrees) at 6 MPH (5 knots; 2.6 m/s)
Visibility: 6 or more miles (10+ km)
Ceiling: 1100 feet AGL
Clouds: broken clouds at 1100 feet AGL
Weather: NSW  (no significant weather)
Forecast for: SBGR (GUARULHOS (CIV/M, BR)
Text: TAF AMD SBGR 270200Z 2703/2806 08002KT CAVOK TN17/2708Z TX28/2717Z
Forecast period: 0300 to 0600 UTC 28 April 2018
Forecast type: BECOMING: Conditions expected to become as follows by 0500 UTC 28 April 2018
Winds: from the ENE (70 degrees) at 6 MPH (5 knots; 2.6 m/s)
Visibility: 5 miles (8 km)
Ceiling: 900 feet AGL
Clouds: broken clouds at 900 feet AGL
Weather: NSW  (no significant weather)
Forecast for: SBGR (GUARULHOS (CIV/M, BR)
Text: TAF AMD SBGR 270200Z 2703/2806 08002KT CAVOK TN17/2708Z TX28/2717Z
Forecast period: 0300 to 0600 UTC 28 April 2018
Forecast type: BECOMING: Conditions expected to become as follows by 0500 UTC 28 April 2018
Winds: from the ENE (70 degrees) at 6 MPH (5 knots; 2.6 m/s)
Visibility: 5 miles (8 km)
Ceiling: 900 feet AGL
Clouds: broken clouds at 900 feet AGL
Weather: NSW  (no significant weather)

 AIRPORT MAP

 RUNWAY INFORMATION
Runway 09L Runway length 12139 ft Runway width 148 ft
Runway elevation 2445 ft Runway displaced threshold 0 ft Runway heading 74
Runway 27R Runway length 12139 ft Runway width 148 ft
Runway elevation 2440 ft Runway displaced threshold 0 ft Runway heading 254
Runway 09R Runway length 9843 ft Runway width 148 ft
Runway elevation 2450 ft Runway displaced threshold 0 ft Runway heading 74
Runway 27L Runway length 9843 ft Runway width 148 ft
Runway elevation 2445 ft Runway displaced threshold 0 ft Runway heading 254

 AIRPORT FREQUENCIES
Type APP Name SAO PAULO Frequency 119.8 MHZ
Type ATIS Name ATIS Frequency 127.75 MHZ
Type CLD Name CLNC DEL Frequency 121 MHZ
Type GND Name GND Frequency 121.7 MHZ
Type ILS: Name RWY 27L Frequency 111.1 MHZ
Type OPS Name SAO PAULO Frequency 122.5 MHZ
Type TWR Name TWR Frequency 118.4 MHZ

 AIRPORT NEAR NAVIGATION AIDS
Type VOR-DME Name Bonsucesso Frequency 116000 KHZ
Type NDB Name Perus Frequency 220 KHZ